Neillsville, Wisconsin
Current Conditions -  °F | °C
As of 12:54 PM on Tuesday 21 Oct 2014 (Local Time) from KMFI Reporting Station
Broken Clouds Broken Clouds  
Wind Chill:   Ceiling: 2300
Heat Index:   Visibility: 10mi
Dew Point:   Wind: 6mph
Humidity: 66%   Direction: NA
Pressure: 30.24"   Gusts: NA
Location:  44.56°N, 90.6°W
Report Text: KMFI 211754Z AUTO VRB05KT 10SM BKN023 09/03 A3024 RMK AO2 SLP246 T00890028 10100 20044 50004
Loading
Personal Weather Stations






























Interactive Weather Map
Tropical Storm Tracking
New forecast layout! Learn more

10-Day Weather Forecast

Advertisements
Track Severe Weather on mobile